Time;durP1;ratioP1;P1;durP2;ratioP2;P2;SDS_P1;SDS_P2;PMS_P1;PMS_P2;Temp;Humidity;BMP_temperature;BMP_pressure;BME280_temperature;BME280_humidity;BME280_pressure;Samples;Min_cycle;Max_cycle;Signal;HPM_P1;HPM_P2
2022/10/01 04:32:46;;;;;;;;;0.00;0.00;;;;;15.01;89.06;100311.44;5053220;27;45604;-71
2022/10/01 04:35:12;;;;;;;;;0.50;0.00;;;;;15.00;89.18;100313.28;5076160;28;45679;-72
2022/10/01 04:37:37;;;;;;;;;0.00;0.00;;;;;15.02;88.74;100323.97;5076273;28;45520;-74
2022/10/01 04:40:04;;;;;;;;;0.00;0.00;;;;;15.02;88.31;100322.13;5075976;28;46085;-74
2022/10/01 04:42:30;;;;;;;;;0.00;0.00;;;;;15.08;88.05;100302.78;5076300;28;45347;-75
2022/10/01 04:44:56;;;;;;;;;0.00;0.00;;;;;15.26;87.59;100324.06;5075883;28;45438;-73
2022/10/01 04:47:21;;;;;;;;;0.00;0.00;;;;;15.31;87.51;100325.44;5076143;28;45235;-73
2022/10/01 04:49:47;;;;;;;;;0.00;0.00;;;;;15.29;87.52;100327.41;5062852;28;46259;-74
2022/10/01 04:52:12;;;;;;;;;0.00;0.00;;;;;15.26;87.15;100332.16;5064954;28;45325;-73
2022/10/01 04:54:37;;;;;;;;;0.00;0.00;;;;;15.36;87.06;100336.78;5076563;28;45358;-74
2022/10/01 04:57:03;;;;;;;;;0.00;0.00;;;;;15.41;87.00;100358.06;5076166;28;45348;-75
2022/10/01 04:59:28;;;;;;;;;0.00;0.00;;;;;15.39;87.36;100354.63;5075161;28;46292;-74
2022/10/01 05:01:53;;;;;;;;;0.00;0.00;;;;;15.25;87.15;100325.03;5075724;28;45384;-73
2022/10/01 05:04:19;;;;;;;;;0.00;0.00;;;;;15.42;86.73;100348.97;5076163;28;45303;-72
2022/10/01 05:06:44;;;;;;;;;0.00;0.00;;;;;15.34;87.02;100345.97;5074782;28;45566;-76
2022/10/01 05:09:09;;;;;;;;;0.00;0.00;;;;;15.27;87.20;100334.75;5055276;28;46036;-76
2022/10/01 05:11:35;;;;;;;;;0.00;0.00;;;;;15.36;86.73;100342.19;5055669;28;45293;-73
2022/10/01 05:14:00;;;;;;;;;0.00;0.00;;;;;15.42;86.43;100346.28;5055179;28;45436;-75
2022/10/01 05:16:25;;;;;;;;;0.00;0.00;;;;;15.42;86.51;100346.28;5074371;28;45623;-74
2022/10/01 05:18:51;;;;;;;;;0.00;0.00;;;;;15.51;86.65;100375.34;5075489;28;45390;-73
2022/10/01 05:21:17;;;;;;;;;0.00;0.00;;;;;15.50;86.49;100371.75;5075621;28;45451;-74
2022/10/01 05:23:42;;;;;;;;;0.00;0.00;;;;;15.52;86.18;100375.22;5075579;28;45412;-74
2022/10/01 05:26:08;;;;;;;;;0.75;0.00;;;;;15.60;85.55;100376.53;5075249;28;45584;-74
2022/10/01 05:28:34;;;;;;;;;0.00;0.00;;;;;15.59;85.86;100383.78;5075255;28;45320;-73
2022/10/01 05:31:03;;;;;;;;;0.00;0.00;;;;;15.58;86.07;100381.19;5075250;28;45504;-73
2022/10/01 05:33:29;;;;;;;;;0.00;0.00;;;;;15.63;86.10;100390.72;5075029;28;45351;-73
2022/10/01 05:35:56;;;;;;;;;0.00;0.00;;;;;15.59;86.07;100391.88;5075296;28;45731;-74
2022/10/01 05:38:22;;;;;;;;;0.00;0.00;;;;;15.62;85.60;100391.69;5075261;28;46286;-73
2022/10/01 05:40:48;;;;;;;;;0.00;0.00;;;;;15.70;85.37;100405.50;5076196;28;45521;-74
2022/10/01 05:43:13;;;;;;;;;0.00;0.00;;;;;15.75;85.29;100413.25;5075022;28;45422;-74
2022/10/01 05:45:39;;;;;;;;;0.00;0.00;;;;;15.77;85.16;100414.88;5075625;28;45362;-75
2022/10/01 05:48:07;;;;;;;;;0.00;0.00;;;;;15.75;85.03;100424.94;5074993;28;45306;-73
2022/10/01 05:50:35;;;;;;;;;0.00;0.00;;;;;15.78;85.21;100430.13;5059217;28;45436;-74
2022/10/01 05:53:01;;;;;;;;;0.00;0.00;;;;;15.83;84.92;100440.59;5075068;28;45374;-73
2022/10/01 05:55:32;;;;;;;;;0.00;0.00;;;;;15.84;84.89;100439.63;5074985;28;45388;-73
2022/10/01 05:58:02;;;;;;;;;0.00;0.00;;;;;15.82;84.54;100442.44;5074876;28;46205;-73
2022/10/01 06:00:28;;;;;;;;;0.25;0.00;;;;;15.72;84.49;100408.09;5074703;28;45517;-78
2022/10/01 06:02:58;;;;;;;;;0.00;0.00;;;;;15.90;83.98;100441.91;5074913;28;45302;-73
2022/10/01 06:05:25;;;;;;;;;0.50;0.00;;;;;15.91;83.82;100451.72;5075517;28;45397;-75
2022/10/01 06:07:52;;;;;;;;;0.00;0.00;;;;;15.90;83.94;100447.31;5071664;28;46479;-75
2022/10/01 06:10:18;;;;;;;;;0.00;0.00;;;;;15.94;83.68;100456.91;5075088;28;45470;-74
2022/10/01 06:12:44;;;;;;;;;0.00;0.00;;;;;15.99;83.26;100470.13;5074851;28;45310;-75
2022/10/01 06:15:12;;;;;;;;;0.00;0.00;;;;;15.99;82.71;100478.22;5074157;28;45499;-74
2022/10/01 06:17:43;;;;;;;;;0.00;0.00;;;;;15.96;82.81;100467.63;5074306;28;46568;-75
2022/10/01 06:20:11;;;;;;;;;0.00;0.00;;;;;16.05;82.90;100492.16;5074032;28;45328;-72
2022/10/01 06:22:38;;;;;;;;;0.00;0.00;;;;;15.95;82.71;100472.16;5062566;28;45201;-72
2022/10/01 06:25:05;;;;;;;;;0.00;0.00;;;;;15.99;82.35;100479.06;5074379;28;46346;-75
2022/10/01 06:27:30;;;;;;;;;0.00;0.00;;;;;16.05;82.07;100483.19;5074273;28;45999;-75
2022/10/01 06:29:55;;;;;;;;;1.00;0.00;;;;;15.95;81.28;100472.16;5074173;28;45373;-74
2022/10/01 06:32:21;;;;;;;;;1.00;0.00;;;;;16.05;81.23;100492.16;5073920;28;45452;-74
2022/10/01 06:34:46;;;;;;;;;0.00;0.00;;;;;16.07;80.09;100503.72;5074213;28;45543;-74
2022/10/01 06:37:11;;;;;;;;;0.00;0.00;;;;;16.12;79.96;100497.97;5074709;28;46130;-76
2022/10/01 06:39:37;;;;;;;;;2.25;0.00;;;;;16.16;79.82;100494.91;5073650;28;45437;-73
2022/10/01 06:42:02;;;;;;;;;0.00;0.00;;;;;16.13;79.72;100497.88;5052947;28;45384;-76
2022/10/01 06:44:27;;;;;;;;;0.00;0.00;;;;;16.14;79.49;100514.97;5035557;28;45968;-74
2022/10/01 06:46:53;;;;;;;;;0.25;0.00;;;;;16.16;79.43;100504.91;5054282;28;46067;-76
2022/10/01 06:49:20;;;;;;;;;1.50;0.00;;;;;16.12;79.63;100490.72;5059761;27;46010;-73
2022/10/01 06:54:30;;;;;;;;;0.00;0.00;;;;;16.18;79.36;100506.50;5083623;27;45579;-75
2022/10/01 06:56:55;;;;;;;;;0.25;0.25;;;;;16.24;79.83;100508.78;5087209;27;45286;-70
2022/10/01 06:59:21;;;;;;;;;0.00;0.00;;;;;16.22;79.52;100504.44;5080512;27;45256;-70
2022/10/01 07:01:48;;;;;;;;;0.00;0.00;;;;;16.24;79.72;100508.78;5077817;28;45442;-70
2022/10/01 07:04:14;;;;;;;;;0.00;0.00;;;;;16.23;80.28;100517.88;5044643;28;46054;-70
2022/10/01 07:06:39;;;;;;;;;0.00;0.00;;;;;16.23;79.24;100523.28;5077033;28;47064;-69
2022/10/01 07:09:04;;;;;;;;;0.00;0.00;;;;;16.24;79.71;100526.84;5074285;28;45308;-70
2022/10/01 07:11:30;;;;;;;;;0.75;0.00;;;;;16.20;79.83;100517.22;5077699;28;45346;-70
2022/10/01 07:13:56;;;;;;;;;2.00;0.00;;;;;16.26;79.90;100535.69;5067121;27;45438;-68
2022/10/01 07:16:21;;;;;;;;;0.00;0.00;;;;;16.25;79.94;100547.50;5072033;28;46256;-71
2022/10/01 07:18:47;;;;;;;;;0.00;0.00;;;;;16.25;79.92;100544.78;5071967;28;45438;-70
2022/10/01 07:21:12;;;;;;;;;0.00;0.00;;;;;16.31;79.69;100543.50;5079510;27;45366;-69
2022/10/01 07:23:37;;;;;;;;;1.00;0.00;;;;;16.30;79.60;100550.75;5076374;28;47348;-70
2022/10/01 07:26:04;;;;;;;;;0.00;0.00;;;;;16.18;79.49;100538.97;5076337;28;52864;-69
2022/10/01 07:28:30;;;;;;;;;2.00;0.75;;;;;16.18;79.50;100544.38;5059659;28;45534;-70
2022/10/01 07:31:00;;;;;;;;;0.75;0.75;;;;;16.30;79.32;100569.69;5056417;28;45371;-69
2022/10/01 07:33:26;;;;;;;;;1.75;0.00;;;;;16.26;79.09;100569.03;5072897;28;45524;-70
2022/10/01 07:35:51;;;;;;;;;1.00;0.00;;;;;16.24;79.00;100565.59;5077205;28;45692;-71
2022/10/01 07:38:16;;;;;;;;;0.00;0.00;;;;;16.31;78.03;100582.22;5077134;28;45406;-70
2022/10/01 07:40:42;;;;;;;;;1.00;1.00;;;;;16.36;77.79;100585.47;5077272;28;45487;-69
2022/10/01 07:43:07;;;;;;;;;5.25;0.75;;;;;16.36;77.67;100585.47;5076706;28;45383;-70
2022/10/01 07:45:33;;;;;;;;;1.00;1.00;;;;;16.36;77.25;100596.28;5076780;28;45567;-70
2022/10/01 07:48:00;;;;;;;;;1.75;0.00;;;;;16.37;76.59;100595.31;5075217;28;45380;-70
2022/10/01 07:50:29;;;;;;;;;2.25;2.25;;;;;16.39;76.64;100592.50;5085111;27;45394;-69
2022/10/01 07:52:56;;;;;;;;;2.00;2.00;;;;;16.34;75.07;100591.94;5057796;28;46039;-69
2022/10/01 07:55:27;;;;;;;;;3.50;1.75;;;;;16.32;75.33;100602.03;5066979;28;45528;-71
2022/10/01 07:57:54;;;;;;;;;1.00;1.00;;;;;16.42;75.29;100613.91;5071657;28;45592;-72
2022/10/01 08:00:21;;;;;;;;;3.00;1.50;;;;;16.37;74.39;100619.66;5074355;28;45417;-70
2022/10/01 08:02:49;;;;;;;;;4.00;1.50;;;;;16.37;73.46;100625.06;5076257;28;45299;-70
2022/10/01 08:05:19;;;;;;;;;2.25;1.00;;;;;16.39;73.63;100608.72;5075702;28;46207;-70
2022/10/01 08:07:45;;;;;;;;;1.00;1.00;;;;;16.48;73.41;100616.19;5066259;28;45362;-71
2022/10/01 08:10:11;;;;;;;;;0.00;0.00;;;;;16.42;72.38;100592.25;5067887;28;45437;-70
2022/10/01 08:12:37;;;;;;;;;0.50;0.50;;;;;16.59;71.36;100613.53;5045247;28;46096;-70
2022/10/01 08:15:02;;;;;;;;;0.50;0.50;;;;;16.68;71.48;100621.03;5071745;28;45362;-70
2022/10/01 08:17:28;;;;;;;;;1.00;1.00;;;;;16.76;71.08;100624.03;5074633;28;45298;-71
2022/10/01 08:19:53;;;;;;;;;3.00;2.00;;;;;16.79;70.05;100631.94;5072481;28;45302;-71
2022/10/01 08:22:19;;;;;;;;;3.00;0.00;;;;;16.85;69.85;100638.75;5074515;28;45314;-70
2022/10/01 08:24:45;;;;;;;;;1.00;1.00;;;;;16.87;69.68;100629.53;5075998;28;46189;-69
2022/10/01 08:27:10;;;;;;;;;1.25;1.25;;;;;16.85;69.54;100639.59;5047673;28;45210;-70
2022/10/01 08:29:35;;;;;;;;;1.50;1.00;;;;;16.87;69.41;100639.50;5068055;28;45310;-70
2022/10/01 08:32:01;;;;;;;;;2.50;0.00;;;;;16.82;68.89;100649.81;5074606;28;45363;-69
2022/10/01 08:34:26;;;;;;;;;1.00;1.00;;;;;16.81;69.67;100648.09;5063560;28;45448;-70
2022/10/01 08:36:51;;;;;;;;;5.00;1.50;;;;;16.81;69.37;100654.38;5055209;28;47942;-70
2022/10/01 08:39:17;;;;;;;;;2.00;1.00;;;;;16.78;69.35;100654.59;5055895;28;45457;-70
2022/10/01 08:41:58;;;;;;;;;3.00;2.25;;;;;16.84;69.84;100662.25;5055459;28;45387;-70
2022/10/01 08:44:40;;;;;;;;;0.50;0.50;;;;;16.84;69.63;100662.25;5055338;28;45496;-70
2022/10/01 08:47:23;;;;;;;;;0.75;0.75;;;;;16.91;69.89;100678.94;5055678;28;45339;-70
2022/10/01 08:49:58;;;;;;;;;1.25;1.00;;;;;16.93;69.98;100667.00;5055389;28;45457;-70
2022/10/01 08:52:31;;;;;;;;;1.50;1.00;;;;;17.01;69.53;100675.41;5055353;28;45279;-70
2022/10/01 08:55:05;;;;;;;;;5.00;2.00;;;;;17.01;70.25;100686.25;5070828;28;46964;-69
2022/10/01 08:57:41;;;;;;;;;1.00;1.00;;;;;17.04;70.74;100685.16;5055158;28;45331;-69
2022/10/01 09:00:12;;;;;;;;;3.00;1.75;;;;;17.11;70.80;100697.28;5055236;28;45306;-69
2022/10/01 09:02:39;;;;;;;;;1.75;1.00;;;;;17.10;70.63;100692.00;5054865;28;46056;-69
2022/10/01 09:05:23;;;;;;;;;2.50;2.00;;;;;17.13;71.40;100702.59;5054253;28;46500;-71
2022/10/01 09:08:08;;;;;;;;;3.25;0.75;;;;;17.18;71.15;100706.66;5051994;28;45532;-70
2022/10/01 09:10:59;;;;;;;;;2.00;1.00;;;;;17.17;71.06;100688.72;5046643;28;45530;-70
2022/10/01 09:13:27;;;;;;;;;5.00;2.50;;;;;17.23;71.01;100712.63;5052093;28;45277;-72
2022/10/01 09:16:11;;;;;;;;;3.00;1.00;;;;;17.28;71.36;100705.03;5052049;28;48574;-69
2022/10/01 09:19:13;;;;;;;;;2.75;1.00;;;;;17.33;71.38;100704.69;5053149;28;45374;-71
2022/10/01 09:22:04;;;;;;;;;1.00;1.00;;;;;17.36;71.63;100709.88;5055541;28;45509;-70
2022/10/01 09:24:40;;;;;;;;;2.75;2.00;;;;;17.39;70.86;100707.81;5055128;28;45698;-69
2022/10/01 09:27:17;;;;;;;;;1.00;1.00;;;;;17.43;70.98;100713.88;5054932;28;45243;-71
2022/10/01 09:29:59;;;;;;;;;1.00;1.00;;;;;17.46;70.36;100712.75;5054769;28;45292;-70
2022/10/01 09:32:35;;;;;;;;;1.00;1.00;;;;;17.45;69.84;100720.03;5065949;28;45703;-70
2022/10/01 09:35:11;;;;;;;;;3.75;3.00;;;;;17.33;70.20;100702.84;5074694;28;45402;-70
2022/10/01 09:37:47;;;;;;;;;3.00;3.00;;;;;17.50;69.34;100727.81;5075348;28;46062;-71
2022/10/01 09:40:16;;;;;;;;;2.75;2.00;;;;;17.53;69.81;100733.00;5074908;28;45417;-71
2022/10/01 09:42:42;;;;;;;;;3.00;3.00;;;;;17.52;69.67;100751.13;5075160;28;45389;-70
2022/10/01 09:45:15;;;;;;;;;7.00;1.00;;;;;17.35;69.21;100722.53;5074526;28;45496;-71
2022/10/01 09:47:47;;;;;;;;;3.75;2.00;;;;;17.50;69.28;100731.41;5074755;28;46216;-71
2022/10/01 09:50:16;;;;;;;;;3.00;1.00;;;;;17.54;68.95;100742.88;5066945;27;45380;-71
2022/10/01 09:52:45;;;;;;;;;1.00;1.00;;;;;17.57;69.25;100742.66;5074912;28;45949;-70
2022/10/01 09:55:21;;;;;;;;;2.50;1.25;;;;;17.63;68.60;100742.22;5074954;28;45497;-70
2022/10/01 09:57:55;;;;;;;;;3.75;2.00;;;;;17.64;68.60;100754.78;5073366;28;46466;-71
2022/10/01 10:00:23;;;;;;;;;3.25;1.50;;;;;17.74;67.95;100759.41;5064713;28;45626;-69
2022/10/01 10:02:51;;;;;;;;;4.50;1.00;;;;;17.73;67.82;100759.53;5060155;28;45560;-73
2022/10/01 10:05:19;;;;;;;;;1.00;1.00;;;;;17.84;67.70;100765.00;5062546;28;45427;-69
2022/10/01 10:08:11;;;;;;;;;5.25;1.25;;;;;17.76;66.64;100746.59;5065170;28;45386;-72
2022/10/01 10:10:38;;;;;;;;;1.00;1.00;;;;;17.82;66.85;100766.97;5073047;28;45393;-72
2022/10/01 10:13:18;;;;;;;;;2.25;1.00;;;;;17.88;66.48;100762.91;5056561;28;45530;-69
2022/10/01 10:15:56;;;;;;;;;2.50;1.00;;;;;17.94;65.70;100773.31;5073980;28;45403;-69
2022/10/01 10:18:34;;;;;;;;;1.00;1.00;;;;;17.90;65.28;100759.09;5074227;28;46591;-67
2022/10/01 10:21:03;;;;;;;;;1.25;1.25;;;;;18.09;65.61;100773.00;5074313;28;45342;-73
2022/10/01 10:23:28;;;;;;;;;1.50;1.50;;;;;18.19;64.69;100767.75;5056323;28;45469;-70
2022/10/01 10:26:04;;;;;;;;;5.00;3.00;;;;;18.24;64.76;100784.53;5074325;28;46091;-68
2022/10/01 10:28:44;;;;;;;;;3.25;1.00;;;;;18.36;64.80;100783.59;5056166;28;48438;-72
2022/10/01 10:31:22;;;;;;;;;3.00;1.75;;;;;18.47;64.25;100783.59;5077211;28;45406;-69
2022/10/01 10:34:04;;;;;;;;;1.75;1.75;;;;;18.60;63.54;100786.25;5078085;28;45284;-71
2022/10/01 10:36:33;;;;;;;;;2.75;2.75;;;;;18.64;63.45;100782.31;5054989;28;45450;-70
2022/10/01 10:38:59;;;;;;;;;6.25;3.25;;;;;18.73;63.03;100791.56;5048362;28;46052;-75
2022/10/01 10:41:27;;;;;;;;;1.75;1.50;;;;;18.73;62.40;100791.56;5049825;28;45791;-74
2022/10/01 10:44:02;;;;;;;;;1.50;1.50;;;;;18.82;62.04;100799.00;5057800;28;45385;-73
2022/10/01 10:46:34;;;;;;;;;2.00;1.00;;;;;18.72;60.28;100789.84;5057651;28;45453;-74
2022/10/01 10:49:28;;;;;;;;;2.00;1.00;;;;;18.79;60.55;100801.97;5057332;28;46076;-73
2022/10/01 10:51:55;;;;;;;;;4.50;2.50;;;;;18.68;61.48;100794.66;5046719;28;45533;-74
2022/10/01 10:54:22;;;;;;;;;2.00;2.00;;;;;18.79;61.23;100799.25;5054468;28;45526;-75
2022/10/01 10:56:52;;;;;;;;;4.00;2.00;;;;;18.80;61.59;100800.97;5056885;28;45682;-79
2022/10/01 10:59:18;;;;;;;;;8.00;2.00;;;;;18.85;61.19;100805.06;5053984;28;45327;-76
2022/10/01 11:01:46;;;;;;;;;3.50;2.00;;;;;18.67;60.83;100798.38;5056755;28;45472;-76
2022/10/01 11:04:41;;;;;;;;;4.75;3.00;;;;;18.81;61.49;100816.28;5051880;28;45454;-77
2022/10/01 11:07:09;;;;;;;;;2.50;1.75;;;;;18.84;61.32;100819.63;5052856;28;45469;-74
2022/10/01 11:09:51;;;;;;;;;0.75;0.25;;;;;18.87;60.91;100824.84;5058450;28;46287;-76
2022/10/01 11:12:37;;;;;;;;;4.25;1.25;;;;;18.95;59.92;100828.78;5057684;28;45495;-75
2022/10/01 11:15:24;;;;;;;;;2.25;2.00;;;;;18.95;60.59;100823.34;5057468;28;45307;-78
2022/10/01 11:18:24;;;;;;;;;1.50;1.00;;;;;18.93;60.20;100834.34;5057416;28;45335;-76
2022/10/01 11:21:09;;;;;;;;;2.50;2.00;;;;;18.94;59.34;100832.50;5055787;28;46211;-74
2022/10/01 11:24:13;;;;;;;;;3.75;2.00;;;;;18.92;59.78;100835.31;5056919;28;45890;-76
2022/10/01 11:27:05;;;;;;;;;7.00;2.00;;;;;18.82;59.51;100845.19;5056901;28;45443;-75
2022/10/01 11:29:49;;;;;;;;;3.00;1.00;;;;;18.81;60.02;100838.88;5056785;28;45276;-75
2022/10/01 11:32:18;;;;;;;;;2.25;1.75;;;;;18.90;60.48;100840.00;5066169;28;45477;-75
2022/10/01 11:35:14;;;;;;;;;2.00;0.25;;;;;19.04;59.87;100839.78;5076943;28;45297;-75
2022/10/01 11:37:51;;;;;;;;;4.25;2.00;;;;;19.12;58.95;100845.47;5077219;28;45863;-74
2022/10/01 11:40:23;;;;;;;;;3.00;1.75;;;;;19.16;58.09;100835.22;5077100;28;45423;-76
2022/10/01 11:42:54;;;;;;;;;2.00;1.75;;;;;19.29;57.75;100841.41;5065967;28;46244;-73
2022/10/01 11:45:34;;;;;;;;;3.75;2.50;;;;;19.35;56.84;100830.03;5062734;28;45455;-75
2022/10/01 11:48:11;;;;;;;;;4.50;3.00;;;;;19.55;56.79;100837.47;5076290;28;45367;-75
2022/10/01 11:50:42;;;;;;;;;3.50;1.75;;;;;19.74;56.70;100838.66;5054869;28;45361;-76
2022/10/01 11:53:23;;;;;;;;;4.25;2.25;;;;;20.50;54.77;100840.44;5062617;28;46096;-74
2022/10/01 11:58:49;;;;;;;;;2.75;0.75;;;;;22.55;49.16;100838.19;5076622;28;45363;-76
2022/10/01 12:01:18;;;;;;;;;3.50;0.50;;;;;23.58;47.17;100830.88;5076121;28;45339;-75
2022/10/01 12:04:22;;;;;;;;;3.50;1.50;;;;;24.35;44.77;100838.63;5076446;28;45622;-75
2022/10/01 12:07:03;;;;;;;;;1.50;0.50;;;;;25.66;43.46;100829.47;5022122;28;45491;-77
2022/10/01 12:09:32;;;;;;;;;1.00;1.00;;;;;25.61;41.72;100835.44;5070166;28;45425;-74
2022/10/01 12:12:04;;;;;;;;;5.00;2.00;;;;;25.65;41.10;100825.00;5075863;28;45453;-75
2022/10/01 12:14:40;;;;;;;;;1.25;1.00;;;;;26.35;40.15;100840.16;5075179;28;47074;-74
2022/10/01 12:17:14;;;;;;;;;0.75;0.75;;;;;26.31;39.46;100820.38;5075888;27;45429;-76
2022/10/01 12:19:45;;;;;;;;;1.00;1.00;;;;;26.08;40.98;100826.69;5076274;28;45361;-75
2022/10/01 12:22:16;;;;;;;;;4.50;2.00;;;;;25.22;41.03;100835.03;5075978;28;45345;-75
2022/10/01 12:24:43;;;;;;;;;0.75;0.75;;;;;25.58;40.88;100861.31;5073165;28;46515;-77
2022/10/01 12:27:23;;;;;;;;;3.50;0.00;;;;;26.04;39.13;100839.00;5065027;28;45438;-75
2022/10/01 12:30:07;;;;;;;;;1.00;1.00;;;;;25.82;39.14;100863.34;5076079;28;45413;-77
2022/10/01 12:32:54;;;;;;;;;0.75;0.75;;;;;25.17;38.90;100853.91;5075888;28;45425;-76
2022/10/01 12:35:41;;;;;;;;;2.50;1.00;;;;;24.16;41.11;100866.13;5057238;28;46040;-76
2022/10/01 12:38:20;;;;;;;;;0.75;0.75;;;;;23.56;42.00;100860.28;5075550;28;45468;-74
2022/10/01 12:41:05;;;;;;;;;1.50;0.50;;;;;22.98;42.85;100857.72;5076656;28;45478;-76
2022/10/01 12:43:39;;;;;;;;;0.75;0.75;;;;;22.59;44.43;100864.22;5055744;28;45369;-77
2022/10/01 12:46:24;;;;;;;;;0.50;0.00;;;;;22.15;45.07;100871.09;5055247;28;45190;-76
2022/10/01 12:48:59;;;;;;;;;1.50;0.25;;;;;21.69;46.24;100879.88;5060804;28;45420;-77
2022/10/01 12:51:30;;;;;;;;;2.25;0.75;;;;;21.03;48.45;100876.63;5070966;27;45346;-75
2022/10/01 12:54:08;;;;;;;;;1.75;0.25;;;;;21.02;49.79;100893.97;5055439;28;45272;-74
2022/10/01 12:56:42;;;;;;;;;1.00;1.00;;;;;20.94;50.87;100893.78;5055237;28;47012;-76
2022/10/01 12:59:29;;;;;;;;;2.75;1.25;;;;;20.85;50.99;100892.72;5055709;28;45414;-74
2022/10/01 13:02:38;;;;;;;;;3.50;1.00;;;;;20.83;51.49;100885.69;5056035;28;45439;-74
2022/10/01 13:05:12;;;;;;;;;2.00;1.00;;;;;20.96;50.67;100894.53;5055274;28;45553;-76
2022/10/01 13:07:56;;;;;;;;;3.00;1.00;;;;;21.19;50.78;100914.34;5063390;28;45548;-74
2022/10/01 13:10:43;;;;;;;;;3.25;0.75;;;;;21.76;49.95;100884.63;5057286;28;45965;-74
2022/10/01 13:13:21;;;;;;;;;2.50;1.50;;;;;22.22;48.76;100894.09;5075832;28;45379;-75
2022/10/01 13:15:52;;;;;;;;;0.00;0.00;;;;;22.43;47.85;100864.81;5073845;28;45465;-75
2022/10/01 13:18:42;;;;;;;;;1.25;0.75;;;;;22.55;47.96;100895.56;5075126;28;46269;-75
2022/10/01 13:21:07;;;;;;;;;1.00;1.00;;;;;22.53;48.42;100917.59;5075703;28;45277;-74
2022/10/01 13:23:56;;;;;;;;;0.25;0.25;;;;;22.43;48.21;100905.78;5075201;28;45441;-75
2022/10/01 13:26:33;;;;;;;;;2.50;0.50;;;;;22.45;48.35;100894.72;5075349;28;45366;-75
2022/10/01 13:29:05;;;;;;;;;0.75;0.75;;;;;22.48;48.50;100908.94;5075348;28;46391;-73
2022/10/01 13:31:37;;;;;;;;;1.50;0.50;;;;;22.45;48.37;100879.19;5074816;28;45647;-74
2022/10/01 13:34:23;;;;;;;;;3.75;1.00;;;;;22.60;47.82;100921.47;5074407;28;45418;-73
2022/10/01 13:36:48;;;;;;;;;0.75;0.75;;;;;22.55;47.93;100906.50;5075057;28;45473;-73
2022/10/01 13:39:23;;;;;;;;;3.00;0.25;;;;;22.65;47.62;100918.28;5073708;28;46351;-72
2022/10/01 13:41:56;;;;;;;;;11.25;3.50;;;;;22.60;47.98;100910.53;5074349;28;45745;-74
2022/10/01 13:44:33;;;;;;;;;1.75;0.50;;;;;22.55;48.08;100920.16;5075101;28;45557;-74
2022/10/01 13:46:58;;;;;;;;;3.00;1.00;;;;;22.54;47.83;100921.19;5075061;28;45466;-73
2022/10/01 13:49:28;;;;;;;;;1.75;1.75;;;;;22.68;48.31;100914.41;5082954;27;46107;-75
2022/10/01 13:51:55;;;;;;;;;0.75;0.75;;;;;22.89;46.47;100928.81;5066337;28;45423;-74
2022/10/01 13:54:38;;;;;;;;;1.50;0.75;;;;;22.80;46.22;100938.75;5054561;28;45331;-74
2022/10/01 13:57:28;;;;;;;;;2.00;1.00;;;;;22.96;46.19;100922.66;5054270;28;45448;-74
2022/10/01 14:00:11;;;;;;;;;1.50;1.00;;;;;24.06;44.54;100931.97;5036791;28;46280;-75
2022/10/01 14:02:43;;;;;;;;;2.00;1.50;;;;;25.08;41.38;100924.31;5054581;28;45387;-73
2022/10/01 14:05:31;;;;;;;;;1.00;1.00;;;;;26.27;39.01;100928.97;5054229;28;45460;-75
2022/10/01 14:08:13;;;;;;;;;3.50;0.00;;;;;26.95;36.66;100909.50;5065966;28;45304;-74
2022/10/01 14:16:42;;;;;;;;;4.50;2.00;;;;;27.98;33.39;100898.63;5051436;28;45411;-75
2022/10/01 14:19:09;;;;;;;;;1.00;1.00;;;;;28.58;33.15;100931.91;5074666;28;45588;-74
2022/10/01 14:22:06;;;;;;;;;1.75;0.75;;;;;28.98;32.52;100939.91;5074791;28;46133;-74
2022/10/01 14:24:38;;;;;;;;;0.25;0.25;;;;;29.11;32.73;100949.47;5055491;28;45409;-74
2022/10/01 14:27:30;;;;;;;;;1.00;0.00;;;;;29.17;32.39;100924.75;5074883;28;45422;-75
2022/10/01 14:30:11;;;;;;;;;2.75;0.75;;;;;29.17;32.46;100952.38;5074722;28;45476;-71
2022/10/01 14:32:51;;;;;;;;;2.00;0.00;;;;;29.29;31.44;100955.50;5074361;28;45283;-75
2022/10/01 14:35:19;;;;;;;;;1.50;1.00;;;;;29.41;31.60;100955.97;5056483;28;45524;-74
2022/10/01 14:37:45;;;;;;;;;2.50;0.00;;;;;29.35;31.17;100947.38;5075582;28;45425;-76
2022/10/01 14:40:22;;;;;;;;;0.75;0.00;;;;;29.26;30.69;100931.06;5074134;28;45593;-73
2022/10/01 14:43:02;;;;;;;;;2.00;0.50;;;;;28.61;30.81;100943.44;5074647;28;46278;-75
2022/10/01 14:45:28;;;;;;;;;2.50;1.50;;;;;28.38;32.32;100981.16;5074024;28;45362;-76
2022/10/01 14:48:05;;;;;;;;;1.75;0.75;;;;;27.73;32.23;100942.78;5074132;28;45403;-75
2022/10/01 14:50:37;;;;;;;;;0.00;0.00;;;;;27.28;33.46;100953.50;5077997;27;47368;-74
2022/10/01 14:53:03;;;;;;;;;1.25;0.25;;;;;27.13;33.86;100956.13;5071880;28;45468;-75
2022/10/01 14:55:29;;;;;;;;;0.00;0.00;;;;;26.63;33.80;100969.94;5073977;28;45273;-74
2022/10/01 14:57:57;;;;;;;;;0.25;0.25;;;;;26.51;34.51;100965.78;5074444;28;45338;-78
2022/10/01 15:00:24;;;;;;;;;3.00;0.25;;;;;26.15;34.37;100965.13;5074024;28;45359;-75
2022/10/01 15:02:52;;;;;;;;;0.00;0.00;;;;;25.99;34.83;100953.03;5072581;28;46220;-74
2022/10/01 15:05:29;;;;;;;;;0.00;0.00;;;;;26.00;35.42;100951.16;5074147;28;45354;-73
2022/10/01 15:07:54;;;;;;;;;2.00;0.25;;;;;25.99;34.56;100946.69;5063690;28;45342;-74
2022/10/01 15:10:24;;;;;;;;;2.00;1.00;;;;;26.05;35.29;100961.63;5055912;28;45408;-74
2022/10/01 15:12:51;;;;;;;;;3.00;0.75;;;;;26.00;35.41;100976.75;5055717;28;45452;-73
2022/10/01 15:15:33;;;;;;;;;1.25;0.00;;;;;25.59;36.45;100974.81;5053957;28;45275;-71
2022/10/01 15:17:58;;;;;;;;;0.00;0.00;;;;;25.42;36.45;101004.00;5067241;28;45316;-72
2022/10/01 15:20:25;;;;;;;;;0.00;0.00;;;;;25.33;37.00;100963.78;5057261;28;45208;-71
2022/10/01 15:22:54;;;;;;;;;0.00;0.00;;;;;25.56;36.74;100973.19;5039477;28;45367;-75
2022/10/01 15:25:28;;;;;;;;;0.75;0.00;;;;;25.63;36.61;100962.44;5057154;28;45228;-79
2022/10/01 15:27:55;;;;;;;;;1.00;1.00;;;;;25.84;37.27;100984.03;5058259;28;45257;-74
2022/10/01 15:30:23;;;;;;;;;2.50;0.50;;;;;25.72;37.46;100979.84;5057157;28;45189;-74
2022/10/01 15:32:49;;;;;;;;;1.00;1.00;;;;;25.70;37.68;100984.63;5068375;28;45320;-72
2022/10/01 15:35:19;;;;;;;;;1.75;1.75;;;;;25.72;37.84;100986.19;5077089;28;45327;-72
2022/10/01 15:37:46;;;;;;;;;7.00;1.50;;;;;25.56;38.10;101006.13;5075745;28;45344;-72
2022/10/01 15:40:27;;;;;;;;;1.25;1.00;;;;;25.46;38.44;101005.38;5077000;28;45556;-74
2022/10/01 15:43:13;;;;;;;;;1.75;0.00;;;;;25.41;38.05;101006.88;5076876;28;45307;-73
2022/10/01 15:45:39;;;;;;;;;1.75;0.75;;;;;24.98;38.55;101007.72;5076891;28;45331;-70
2022/10/01 15:48:26;;;;;;;;;2.75;0.25;;;;;24.73;38.90;101017.53;5077032;28;45473;-71
2022/10/01 15:51:01;;;;;;;;;1.75;0.75;;;;;24.58;38.75;101008.13;5051813;28;45457;-71
2022/10/01 15:53:27;;;;;;;;;0.75;0.75;;;;;24.58;39.29;101017.22;5074065;28;45393;-69
2022/10/01 15:55:58;;;;;;;;;1.00;1.00;;;;;24.37;40.08;101022.94;5076404;28;45518;-70
2022/10/01 15:58:33;;;;;;;;;0.00;0.00;;;;;24.13;40.43;101030.81;5066282;28;45506;-73
2022/10/01 16:01:05;;;;;;;;;0.75;0.00;;;;;24.14;40.55;101033.41;5067135;28;46248;-70
2022/10/01 16:03:52;;;;;;;;;1.25;0.50;;;;;24.09;40.44;101045.81;5071368;27;45511;-71
2022/10/01 16:06:45;;;;;;;;;3.50;1.75;;;;;23.75;41.39;101048.22;5059419;28;45469;-72
2022/10/01 16:09:17;;;;;;;;;1.25;1.25;;;;;23.40;42.45;101049.69;5061154;28;45678;-76
2022/10/01 16:12:08;;;;;;;;;1.00;1.00;;;;;23.26;43.02;101055.63;5054829;28;45232;-74
2022/10/01 16:14:55;;;;;;;;;0.00;0.00;;;;;23.23;43.28;101065.97;5055838;28;46804;-73
2022/10/01 16:17:28;;;;;;;;;2.00;2.00;;;;;23.12;43.39;101064.28;5074909;28;45498;-74
2022/10/01 16:19:57;;;;;;;;;1.50;0.00;;;;;23.08;44.00;101051.88;5077165;28;45430;-76
2022/10/01 16:22:36;;;;;;;;;2.50;1.00;;;;;22.99;44.12;101064.53;5078405;28;45261;-76
2022/10/01 16:25:24;;;;;;;;;1.00;0.50;;;;;22.88;44.29;101056.44;5076822;28;45445;-76
2022/10/01 16:27:59;;;;;;;;;2.00;0.75;;;;;22.95;44.17;101062.25;5057598;28;45628;-76
2022/10/01 16:30:27;;;;;;;;;0.25;0.25;;;;;22.91;44.35;101055.31;5076594;28;46118;-76
2022/10/01 16:32:58;;;;;;;;;2.50;0.50;;;;;22.96;44.43;101066.72;5063889;27;45311;-77